Time;durP1;ratioP1;P1;durP2;ratioP2;P2;SDS_P1;SDS_P2;PMS_P1;PMS_P2;Temp;Humidity;BMP_temperature;BMP_pressure;BME280_temperature;BME280_humidity;BME280_pressure;Samples;Min_cycle;Max_cycle;Signal;HPM_P1;HPM_P2
2022/03/06 00:01:44;;;;;;;11.83;4.77;;;;;;;-4.55;100.00;97100.59;10494109;28;20234;-59
2022/03/06 00:06:44;;;;;;;9.10;5.07;;;;;;;-4.59;100.00;97099.06;10476778;28;20233;-58
2022/03/06 00:11:45;;;;;;;11.47;4.90;;;;;;;-4.62;100.00;97106.81;10494222;28;20218;-61
2022/03/06 00:16:46;;;;;;;6.63;4.20;;;;;;;-4.59;100.00;97107.56;10493977;28;20197;-60
2022/03/06 00:21:46;;;;;;;8.37;4.37;;;;;;;-4.47;100.00;97108.88;10493620;28;20726;-60
2022/03/06 00:26:47;;;;;;;8.50;4.47;;;;;;;-4.45;100.00;97108.81;10493737;28;20240;-60
2022/03/06 00:31:47;;;;;;;8.20;4.63;;;;;;;-4.49;100.00;97105.50;10474893;28;20213;-54
2022/03/06 00:36:47;;;;;;;5.23;3.37;;;;;;;-4.43;100.00;97110.41;10493539;28;20281;-61
2022/03/06 00:41:48;;;;;;;6.67;4.20;;;;;;;-4.39;100.00;97108.59;10493462;28;20214;-56
2022/03/06 00:46:48;;;;;;;6.07;3.30;;;;;;;-4.32;100.00;97113.44;10493048;28;20251;-60
2022/03/06 00:51:48;;;;;;;6.90;4.20;;;;;;;-4.28;100.00;97115.88;10493268;28;20214;-58
2022/03/06 00:56:49;;;;;;;5.43;3.77;;;;;;;-4.37;100.00;97104.25;10492966;28;20217;-59
2022/03/06 01:01:49;;;;;;;7.83;3.97;;;;;;;-4.48;100.00;97112.28;10492331;28;20223;-59
2022/03/06 01:06:50;;;;;;;5.67;3.83;;;;;;;-4.64;100.00;97116.28;10493042;28;20225;-59
2022/03/06 01:11:51;;;;;;;5.03;3.20;;;;;;;-4.75;100.00;97114.09;10492533;28;20691;-60
2022/03/06 01:16:51;;;;;;;6.13;4.00;;;;;;;-4.85;100.00;97109.28;10493053;28;20199;-59
2022/03/06 01:21:52;;;;;;;9.30;4.13;;;;;;;-4.98;100.00;97105.47;10492116;28;20242;-58
2022/03/06 01:26:52;;;;;;;6.80;3.83;;;;;;;-5.00;100.00;97106.44;10492605;28;20216;-58
2022/03/06 01:31:52;;;;;;;7.43;3.57;;;;;;;-4.96;100.00;97107.97;10492386;28;20218;-59
2022/03/06 01:36:53;;;;;;;7.40;3.77;;;;;;;-4.94;100.00;97111.34;10492233;28;20186;-60
2022/03/06 01:41:54;;;;;;;6.87;4.30;;;;;;;-5.06;100.00;97105.72;10495200;28;20716;-59
2022/03/06 01:46:54;;;;;;;10.07;4.30;;;;;;;-5.00;100.00;97104.69;10499425;28;20200;-58
2022/03/06 01:51:54;;;;;;;6.67;3.97;;;;;;;-5.02;100.00;97111.59;10499794;28;20204;-61
2022/03/06 01:56:55;;;;;;;4.60;2.67;;;;;;;-5.09;100.00;97118.59;10499343;28;20216;-56
2022/03/06 02:01:55;;;;;;;6.00;3.40;;;;;;;-5.16;100.00;97109.50;10479899;28;20203;-59
2022/03/06 02:06:57;;;;;;;7.27;3.53;;;;;;;-5.17;100.00;97106.97;10499080;28;20664;-57
2022/03/06 02:17:17;;;;;;;5.70;3.40;;;;;;;-5.05;100.00;97114.25;10498496;28;20224;-59
2022/03/06 02:22:18;;;;;;;5.77;3.53;;;;;;;-5.04;100.00;97113.34;10497715;28;20237;-60
2022/03/06 02:27:19;;;;;;;15.77;4.03;;;;;;;-5.04;100.00;97098.00;10497740;28;20746;-60
2022/03/06 02:32:20;;;;;;;5.03;3.67;;;;;;;-4.93;100.00;97097.66;10498442;28;20307;-58
2022/03/06 02:37:21;;;;;;;7.90;3.40;;;;;;;-4.97;100.00;97094.38;10500513;28;20271;-60
2022/03/06 02:42:26;;;;;;;6.80;4.00;;;;;;;-4.98;100.00;97094.44;10497726;28;20326;-59
2022/03/06 02:47:27;;;;;;;6.57;3.50;;;;;;;-4.90;100.00;97100.09;10497701;28;20189;-59
2022/03/06 02:52:28;;;;;;;4.90;3.43;;;;;;;-4.77;100.00;97098.81;10496517;28;20222;-60
2022/03/06 02:57:28;;;;;;;3.10;2.57;;;;;;;-4.77;100.00;97095.41;10497078;28;20223;-60
2022/03/06 03:02:29;;;;;;;9.93;3.30;;;;;;;-4.72;100.00;97091.81;10496631;28;20712;-60
2022/03/06 03:07:29;;;;;;;4.87;3.17;;;;;;;-4.72;100.00;97083.31;10496693;28;20594;-59
2022/03/06 03:12:29;;;;;;;10.33;4.20;;;;;;;-4.68;100.00;97087.44;10496319;28;20213;-59
2022/03/06 03:17:30;;;;;;;7.70;3.60;;;;;;;-4.58;100.00;97091.34;10496446;28;20186;-60
2022/03/06 03:22:30;;;;;;;6.30;3.60;;;;;;;-4.52;100.00;97091.13;10495943;28;20695;-61
2022/03/06 03:27:31;;;;;;;7.30;4.10;;;;;;;-4.53;100.00;97096.28;10495847;28;20720;-61
2022/03/06 03:32:31;;;;;;;6.27;3.63;;;;;;;-4.50;100.00;97094.47;10495708;28;20224;-61
2022/03/06 03:37:32;;;;;;;8.03;3.70;;;;;;;-4.51;100.00;97097.88;10495239;28;20201;-60
2022/03/06 03:42:32;;;;;;;3.27;2.47;;;;;;;-4.43;100.00;97097.63;10495319;28;20262;-60
2022/03/06 03:47:33;;;;;;;5.27;3.67;;;;;;;-4.37;100.00;97087.16;10495003;28;20196;-57
2022/03/06 03:52:33;;;;;;;8.93;3.40;;;;;;;-4.32;100.00;97098.09;10494651;28;20593;-60
2022/03/06 03:57:34;;;;;;;6.70;3.57;;;;;;;-4.31;100.00;97088.69;10494928;28;20263;-60
2022/03/06 04:02:34;;;;;;;5.13;2.53;;;;;;;-4.18;100.00;97089.06;10485823;28;20304;-61
2022/03/06 04:07:35;;;;;;;4.47;2.73;;;;;;;-4.28;100.00;97087.75;10411036;28;20202;-60
2022/03/06 04:12:35;;;;;;;6.83;3.70;;;;;;;-4.28;100.00;97085.19;10411244;28;20316;-60
2022/03/06 04:17:36;;;;;;;9.27;4.00;;;;;;;-4.26;100.00;97088.50;10411525;28;20193;-59
2022/03/06 04:22:36;;;;;;;5.43;3.67;;;;;;;-4.27;100.00;97089.38;10411261;28;20229;-61
2022/03/06 04:27:36;;;;;;;9.53;3.47;;;;;;;-4.23;100.00;97093.50;10411138;28;20216;-61
2022/03/06 04:32:37;;;;;;;8.80;3.50;;;;;;;-4.15;100.00;97100.03;10411119;28;20225;-60
2022/03/06 04:37:38;;;;;;;8.23;3.50;;;;;;;-4.10;100.00;97092.19;10410713;28;20212;-61
2022/03/06 04:42:38;;;;;;;5.60;3.30;;;;;;;-4.18;100.00;97092.47;10410941;28;20315;-60
2022/03/06 04:47:38;;;;;;;5.20;3.63;;;;;;;-4.12;100.00;97096.50;10410901;28;20193;-60
2022/03/06 04:52:39;;;;;;;6.00;3.23;;;;;;;-4.00;100.00;97098.59;10410245;28;20218;-61
2022/03/06 04:57:39;;;;;;;7.47;3.37;;;;;;;-4.02;100.00;97091.91;10410561;28;20195;-60
2022/03/06 05:02:40;;;;;;;3.90;3.10;;;;;;;-3.98;100.00;97090.88;10409985;28;20848;-57
2022/03/06 05:07:40;;;;;;;4.30;3.43;;;;;;;-3.98;100.00;97095.97;10411419;28;20189;-57
2022/03/06 05:12:41;;;;;;;4.70;3.37;;;;;;;-4.09;100.00;97109.19;10410582;28;20233;-60
2022/03/06 05:17:42;;;;;;;6.33;3.40;;;;;;;-3.92;100.00;97098.34;10414643;28;20194;-61
2022/03/06 05:22:43;;;;;;;4.77;3.20;;;;;;;-3.73;100.00;97095.91;10418367;28;20247;-61
2022/03/06 05:27:43;;;;;;;6.10;3.20;;;;;;;-3.68;100.00;97094.00;10418037;28;20204;-59
2022/03/06 05:32:43;;;;;;;7.47;3.87;;;;;;;-3.64;100.00;97103.22;10418124;28;20238;-61
2022/03/06 05:37:44;;;;;;;7.33;4.03;;;;;;;-3.66;100.00;97107.59;10417928;28;20206;-60
2022/03/06 05:42:44;;;;;;;6.67;3.93;;;;;;;-3.64;100.00;97115.22;10417769;28;20767;-61
2022/03/06 05:47:44;;;;;;;6.87;4.33;;;;;;;-3.64;100.00;97113.47;10417674;28;20271;-61
2022/03/06 05:52:45;;;;;;;10.07;5.90;;;;;;;-3.59;100.00;97115.84;10417176;28;20221;-58
2022/03/06 05:57:45;;;;;;;10.87;5.97;;;;;;;-3.40;100.00;97113.41;10417373;28;20185;-61
2022/03/06 06:02:46;;;;;;;9.30;5.40;;;;;;;-3.41;100.00;97120.25;10416621;28;20212;-60
2022/03/06 06:07:48;;;;;;;11.97;6.70;;;;;;;-3.24;100.00;97114.47;10416891;28;20189;-60
2022/03/06 06:12:48;;;;;;;16.13;7.23;;;;;;;-3.30;100.00;97119.00;10416518;28;20234;-60
2022/03/06 06:17:49;;;;;;;11.77;7.47;;;;;;;-3.11;100.00;97121.66;10416532;28;20188;-61
2022/03/06 06:22:53;;;;;;;15.50;7.10;;;;;;;-3.16;100.00;97126.13;10416074;28;20247;-60
2022/03/06 06:27:53;;;;;;;14.70;7.73;;;;;;;-2.98;100.00;97125.38;10415146;28;20294;-61
2022/03/06 06:32:54;;;;;;;10.53;7.30;;;;;;;-2.99;100.00;97133.97;10415733;28;20374;-61
2022/03/06 06:37:54;;;;;;;14.10;8.10;;;;;;;-2.99;100.00;97135.72;10415733;28;20196;-61
2022/03/06 06:42:54;;;;;;;16.53;9.17;;;;;;;-2.93;100.00;97132.88;10415453;28;20212;-60
2022/03/06 06:47:55;;;;;;;15.00;9.03;;;;;;;-3.02;100.00;97133.25;10415407;28;20185;-61
2022/03/06 06:52:55;;;;;;;16.40;8.73;;;;;;;-2.93;100.00;97135.47;10397340;28;20318;-61
2022/03/06 06:57:55;;;;;;;13.63;9.57;;;;;;;-2.89;100.00;97139.56;10415013;28;20189;-61
2022/03/06 07:02:56;;;;;;;16.63;9.70;;;;;;;-2.71;100.00;97143.94;10414298;28;20231;-60
2022/03/06 07:07:56;;;;;;;15.80;8.93;;;;;;;-2.74;100.00;97138.09;10414420;28;20216;-60
2022/03/06 07:12:58;;;;;;;14.90;8.77;;;;;;;-2.66;100.00;97146.31;10414242;28;20227;-60
2022/03/06 07:17:59;;;;;;;19.87;9.17;;;;;;;-2.48;100.00;97144.69;10413935;28;20198;-59
2022/03/06 07:23:00;;;;;;;16.27;9.50;;;;;;;-2.48;100.00;97159.25;10413730;28;20328;-59
2022/03/06 07:28:00;;;;;;;15.93;8.03;;;;;;;-2.37;100.00;97157.06;10414052;28;20612;-60
2022/03/06 07:33:01;;;;;;;17.83;9.40;;;;;;;-2.13;100.00;97154.31;10418512;28;20216;-60
2022/03/06 07:38:01;;;;;;;18.00;8.47;;;;;;;-2.05;100.00;97150.53;10467605;28;20552;-57
2022/03/06 07:43:01;;;;;;;13.63;7.07;;;;;;;-1.95;100.00;97147.56;10470043;28;20227;-61
2022/03/06 07:48:03;;;;;;;13.87;7.70;;;;;;;-1.69;100.00;97138.66;10454208;28;20279;-61
2022/03/06 07:53:04;;;;;;;12.20;7.27;;;;;;;-1.69;100.00;97136.09;10453954;28;20215;-61
2022/03/06 07:58:04;;;;;;;12.17;7.10;;;;;;;-1.68;100.00;97119.81;10453567;28;20188;-61
2022/03/06 08:03:05;;;;;;;12.33;6.67;;;;;;;-1.59;98.54;97121.09;10453460;28;20627;-58
2022/03/06 08:08:05;;;;;;;13.20;6.40;;;;;;;-1.72;96.73;97123.41;10451579;28;20579;-61
2022/03/06 08:13:05;;;;;;;12.80;6.57;;;;;;;-1.50;97.26;97120.66;10452851;28;20591;-59
2022/03/06 08:18:06;;;;;;;13.67;6.07;;;;;;;-1.40;92.12;97082.53;10453392;28;20567;-61
2022/03/06 08:23:06;;;;;;;13.33;6.10;;;;;;;-1.15;91.08;97087.31;10452647;28;20599;-62
2022/03/06 08:28:06;;;;;;;8.10;5.17;;;;;;;-0.78;87.42;97050.31;10452948;28;20790;-60
2022/03/06 08:33:07;;;;;;;9.60;5.53;;;;;;;-0.55;83.71;97020.84;10452592;28;20687;-61
2022/03/06 08:38:07;;;;;;;11.97;5.50;;;;;;;-0.74;82.04;97005.50;10455633;28;20662;-61
2022/03/06 08:43:07;;;;;;;7.47;5.10;;;;;;;-0.24;80.63;97008.09;10493557;28;20732;-61
2022/03/06 08:48:08;;;;;;;8.03;4.90;;;;;;;-0.18;79.40;97002.63;10493606;28;20671;-61
2022/03/06 08:53:08;;;;;;;7.43;4.80;;;;;;;-0.45;77.73;96979.19;10489313;28;20713;-60
2022/03/06 08:58:09;;;;;;;8.37;4.67;;;;;;;-0.34;76.94;96983.75;10507462;28;20282;-61
2022/03/06 09:03:09;;;;;;;7.13;4.63;;;;;;;-0.36;78.24;97001.84;10506484;28;20266;-61
2022/03/06 09:08:10;;;;;;;9.63;4.97;;;;;;;0.19;76.33;96974.00;10506791;28;20545;-61
2022/03/06 09:13:10;;;;;;;9.47;5.00;;;;;;;-0.15;74.41;96939.81;10506757;28;20717;-59
2022/03/06 09:18:11;;;;;;;13.77;8.33;;;;;;;-0.07;74.87;96964.22;10506797;28;20263;-58
2022/03/06 09:23:11;;;;;;;9.07;4.57;;;;;;;0.21;73.75;96942.06;10506668;28;20294;-60
2022/03/06 09:28:11;;;;;;;5.73;4.10;;;;;;;0.53;70.60;96895.59;10506302;28;20287;-60
2022/03/06 09:33:12;;;;;;;6.90;4.03;;;;;;;0.60;70.07;96896.06;10506256;28;20228;-61
2022/03/06 09:38:12;;;;;;;7.83;4.40;;;;;;;0.49;71.43;96933.63;10506193;28;20225;-62
2022/03/06 09:43:15;;;;;;;6.20;4.03;;;;;;;1.05;68.00;96863.28;10505945;28;20209;-60
2022/03/06 09:48:17;;;;;;;7.03;4.57;;;;;;;0.27;69.32;96900.50;10506482;28;20224;-61
2022/03/06 09:53:17;;;;;;;6.63;4.17;;;;;;;0.27;70.72;96930.59;10505915;28;20228;-59
2022/03/06 09:58:17;;;;;;;15.93;7.10;;;;;;;0.32;71.13;96937.16;10506724;28;20217;-62
2022/03/06 10:03:20;;;;;;;8.57;4.30;;;;;;;-0.02;70.55;96943.38;10503467;28;20218;-62
2022/03/06 10:08:24;;;;;;;7.47;4.40;;;;;;;0.39;69.79;96929.91;10498981;28;20272;-62
2022/03/06 10:13:44;;;;;;;7.90;4.50;;;;;;;0.44;69.93;96932.22;10499117;28;20253;-62
2022/03/06 10:18:46;;;;;;;8.17;4.67;;;;;;;0.48;68.34;96900.19;10499252;28;20222;-62
2022/03/06 10:23:49;;;;;;;6.73;4.17;;;;;;;0.42;69.14;96923.75;10498579;28;20562;-62
2022/03/06 10:28:58;;;;;;;8.27;4.17;;;;;;;0.01;69.29;96914.88;10498500;28;20221;-62
2022/03/06 10:34:08;;;;;;;5.90;4.20;;;;;;;-0.27;71.02;96954.19;10498228;28;20225;-62
2022/03/06 10:39:14;;;;;;;5.97;4.07;;;;;;;-0.24;71.05;96954.84;10498224;28;20269;-62
2022/03/06 10:44:16;;;;;;;5.17;3.77;;;;;;;-0.25;70.21;96949.78;10497877;28;20244;-62
2022/03/06 10:49:17;;;;;;;6.20;3.60;;;;;;;-0.06;69.75;96935.00;10497540;28;20945;-62
2022/03/06 10:54:19;;;;;;;5.97;4.17;;;;;;;-0.01;68.54;96904.66;10494116;28;20245;-61
2022/03/06 10:59:21;;;;;;;5.80;3.60;;;;;;;0.07;67.46;96888.75;10493765;28;20270;-61
2022/03/06 11:04:21;;;;;;;12.40;7.60;;;;;;;-0.05;68.47;96904.91;10493641;28;20748;-62
2022/03/06 11:09:23;;;;;;;8.70;6.17;;;;;;;-0.20;69.24;96922.88;10478687;28;20192;-62
2022/03/06 11:14:24;;;;;;;12.47;6.60;;;;;;;-0.29;69.19;96930.25;10495962;28;20596;-62
2022/03/06 11:19:25;;;;;;;10.20;6.50;;;;;;;-0.43;69.59;96920.72;10479199;28;20203;-62
2022/03/06 11:24:28;;;;;;;14.20;8.10;;;;;;;-0.72;70.83;96947.13;10495896;28;20277;-62
2022/03/06 11:29:51;;;;;;;7.30;4.90;;;;;;;-0.50;69.07;96920.25;10478812;28;20177;-62
2022/03/06 11:34:59;;;;;;;6.23;3.67;;;;;;;-0.49;69.27;96903.91;10495727;28;20219;-61
2022/03/06 11:39:59;;;;;;;4.77;4.10;;;;;;;-0.75;70.04;96931.84;10495984;28;20329;-62
2022/03/06 11:44:59;;;;;;;8.80;5.13;;;;;;;-0.76;69.69;96919.88;10495417;28;20549;-62
2022/03/06 11:50:00;;;;;;;6.00;4.07;;;;;;;-0.85;69.84;96920.38;10495447;28;20644;-62
2022/03/06 11:55:02;;;;;;;8.30;3.83;;;;;;;-0.70;68.37;96882.72;10495128;28;20602;-62
2022/03/06 12:00:15;;;;;;;7.37;3.87;;;;;;;-0.57;67.71;96877.72;10494901;28;20660;-61
2022/03/06 12:05:16;;;;;;;5.77;4.03;;;;;;;-0.57;66.61;96837.41;10495145;28;20239;-63
2022/03/06 12:10:18;;;;;;;6.20;3.57;;;;;;;-0.68;66.23;96838.91;10494240;28;20277;-62
2022/03/06 12:15:25;;;;;;;8.87;3.70;;;;;;;-0.35;65.28;96820.78;10494603;28;20247;-62
2022/03/06 12:20:27;;;;;;;6.83;3.97;;;;;;;-0.60;67.24;96857.31;10494311;28;20202;-63
2022/03/06 12:25:33;;;;;;;6.97;4.73;;;;;;;-0.70;69.58;96898.16;10493535;28;20293;-62
2022/03/06 12:30:35;;;;;;;7.97;4.80;;;;;;;-1.14;70.47;96909.03;10494262;28;20552;-62
2022/03/06 12:35:35;;;;;;;8.27;4.50;;;;;;;-0.98;70.80;96920.19;10494073;28;20689;-58
2022/03/06 12:40:36;;;;;;;8.60;4.67;;;;;;;-1.02;71.66;96928.97;10494259;28;20218;-62
2022/03/06 12:45:36;;;;;;;7.80;4.70;;;;;;;-1.22;69.80;96899.16;10493283;28;20202;-62
2022/03/06 12:50:41;;;;;;;7.47;4.40;;;;;;;-0.97;69.05;96885.84;10493577;28;20183;-60
2022/03/06 12:55:41;;;;;;;13.33;7.40;;;;;;;-1.38;71.80;96932.50;10458351;28;20220;-61
2022/03/06 13:00:42;;;;;;;7.37;4.80;;;;;;;-1.43;72.10;96929.34;10476459;28;20186;-60
2022/03/06 13:05:43;;;;;;;11.60;5.87;;;;;;;-1.41;72.75;96952.38;10469911;28;20587;-60
2022/03/06 13:10:43;;;;;;;9.60;5.70;;;;;;;-1.32;72.42;96929.66;10469783;28;20190;-59
2022/03/06 13:15:48;;;;;;;15.60;7.67;;;;;;;-1.22;71.83;96927.44;10457016;28;20226;-60
2022/03/06 13:20:49;;;;;;;7.97;6.10;;;;;;;-1.16;71.29;96921.16;10451545;28;20667;-60
2022/03/06 13:25:49;;;;;;;8.30;4.97;;;;;;;-1.38;70.67;96911.94;10451651;28;20231;-58
2022/03/06 13:30:49;;;;;;;7.37;5.30;;;;;;;-1.51;71.84;96923.75;10451649;28;20200;-59
2022/03/06 13:35:51;;;;;;;6.67;4.13;;;;;;;-1.54;69.72;96881.06;10451232;28;20231;-58
2022/03/06 13:40:54;;;;;;;6.80;4.47;;;;;;;-1.84;70.30;96880.84;10459028;28;20202;-61
2022/03/06 13:45:55;;;;;;;6.07;4.10;;;;;;;-1.84;71.06;96894.53;10458807;28;20204;-59
2022/03/06 13:50:57;;;;;;;6.70;4.10;;;;;;;-1.76;70.93;96909.56;10475459;28;20188;-60
2022/03/06 13:56:00;;;;;;;33.57;25.90;;;;;;;-1.58;71.33;96919.81;10475888;28;20310;-59
2022/03/06 14:01:00;;;;;;;32.97;20.10;;;;;;;-1.80;71.68;96914.00;10461877;28;20275;-60
2022/03/06 14:06:04;;;;;;;6.33;4.90;;;;;;;-1.83;72.49;96934.69;10471184;28;20263;-59
2022/03/06 14:11:06;;;;;;;5.77;4.30;;;;;;;-1.90;72.25;96929.94;10465754;28;20689;-61
2022/03/06 14:16:18;;;;;;;6.53;4.50;;;;;;;-1.78;70.49;96895.13;10457878;28;20256;-59
2022/03/06 14:21:20;;;;;;;7.10;4.13;;;;;;;-1.97;69.13;96870.38;10457420;28;20192;-60
2022/03/06 14:26:25;;;;;;;8.57;5.00;;;;;;;-1.78;69.87;96882.28;10476869;28;20194;-61
2022/03/06 14:31:26;;;;;;;6.17;3.73;;;;;;;-1.69;68.91;96859.53;10478076;28;20187;-61
2022/03/06 14:36:27;;;;;;;7.80;4.03;;;;;;;-1.67;69.61;96874.88;10498705;28;20226;-61
2022/03/06 14:41:28;;;;;;;8.23;3.60;;;;;;;-1.80;69.48;96875.50;10498170;28;20536;-61
2022/03/06 14:46:29;;;;;;;6.07;3.70;;;;;;;-1.95;70.09;96880.56;10498042;28;20180;-58
2022/03/06 14:51:29;;;;;;;9.97;3.80;;;;;;;-1.92;70.32;96904.34;10497093;28;20260;-61
2022/03/06 14:56:32;;;;;;;5.70;3.47;;;;;;;-2.03;70.92;96909.16;10497522;28;20590;-61
2022/03/06 15:01:33;;;;;;;17.53;9.50;;;;;;;-2.03;71.94;96916.88;10496990;28;20561;-62
2022/03/06 15:06:34;;;;;;;11.23;5.93;;;;;;;-2.08;71.97;96929.94;10496584;28;20191;-59
2022/03/06 15:11:34;;;;;;;7.30;4.10;;;;;;;-2.20;71.47;96918.50;10478266;28;20274;-60
2022/03/06 15:16:35;;;;;;;7.33;4.13;;;;;;;-2.13;71.65;96915.63;10496357;28;20393;-63
2022/03/06 15:21:35;;;;;;;9.23;3.53;;;;;;;-1.99;71.78;96926.06;10495867;28;20638;-60
2022/03/06 15:26:35;;;;;;;6.40;4.37;;;;;;;-2.05;71.80;96931.50;10495943;28;20568;-60
2022/03/06 15:31:36;;;;;;;9.73;5.30;;;;;;;-2.01;72.08;96933.84;10495415;28;20194;-59
2022/03/06 15:36:36;;;;;;;5.67;3.97;;;;;;;-2.10;71.87;96918.06;10495109;28;20229;-59
2022/03/06 15:41:37;;;;;;;8.30;4.70;;;;;;;-2.09;72.50;96956.50;10492404;28;20301;-59
2022/03/06 15:46:38;;;;;;;7.20;4.17;;;;;;;-2.25;72.10;96941.00;10494327;28;20184;-62
2022/03/06 15:51:38;;;;;;;6.70;4.27;;;;;;;-2.33;73.30;96969.56;10476750;28;20210;-59
2022/03/06 15:56:39;;;;;;;4.87;4.00;;;;;;;-2.34;72.60;96946.56;10494728;28;20237;-55
2022/03/06 16:01:41;;;;;;;11.10;5.87;;;;;;;-2.33;73.76;96968.72;10458330;28;20640;-59
2022/03/06 16:06:41;;;;;;;8.57;5.17;;;;;;;-2.45;74.27;96980.41;10467502;28;20614;-57
2022/03/06 16:11:41;;;;;;;14.70;6.13;;;;;;;-2.34;73.48;96977.34;10488008;28;20230;-61
2022/03/06 16:16:42;;;;;;;10.33;5.40;;;;;;;-2.40;73.42;96967.34;10491503;28;20222;-61
2022/03/06 16:21:42;;;;;;;10.50;5.23;;;;;;;-2.38;73.68;96978.38;10425320;28;20240;-61
2022/03/06 16:26:44;;;;;;;8.60;4.83;;;;;;;-2.30;73.50;96986.53;10394242;28;20188;-56
2022/03/06 16:31:44;;;;;;;9.40;5.77;;;;;;;-2.29;73.65;96990.78;10431174;28;20579;-57
2022/03/06 16:36:45;;;;;;;9.73;5.43;;;;;;;-2.40;74.53;97000.72;10417409;28;20714;-58
2022/03/06 16:41:45;;;;;;;8.50;5.57;;;;;;;-2.40;74.46;97005.84;10434727;28;20298;-58
2022/03/06 16:46:46;;;;;;;8.03;4.87;;;;;;;-2.44;75.00;97017.13;10421538;28;20187;-58
2022/03/06 16:51:46;;;;;;;8.73;4.60;;;;;;;-2.42;75.56;97029.00;10436551;28;20215;-59
2022/03/06 16:56:47;;;;;;;8.53;4.97;;;;;;;-2.46;77.94;97081.34;10424587;28;20226;-60
2022/03/06 17:01:47;;;;;;;7.40;5.10;;;;;;;-2.55;79.79;97108.19;10401288;28;20224;-59
2022/03/06 17:06:48;;;;;;;9.27;5.60;;;;;;;-2.56;79.45;97095.44;10410404;28;20180;-60
2022/03/06 17:11:49;;;;;;;8.23;4.60;;;;;;;-2.67;81.01;97113.03;10410816;28;20586;-61
2022/03/06 17:16:50;;;;;;;10.43;5.13;;;;;;;-2.64;81.33;97118.84;10418201;28;20212;-54
2022/03/06 17:21:50;;;;;;;10.27;5.93;;;;;;;-2.78;82.24;97127.13;10418590;28;20327;-58
2022/03/06 17:26:51;;;;;;;9.03;5.60;;;;;;;-2.85;82.42;97141.09;10418393;28;20279;-57
2022/03/06 17:31:52;;;;;;;12.27;5.97;;;;;;;-2.81;82.47;97126.44;10418463;28;20208;-61
2022/03/06 17:36:52;;;;;;;17.73;6.00;;;;;;;-2.81;82.54;97126.44;10418103;28;20216;-58
2022/03/06 17:41:53;;;;;;;9.87;6.10;;;;;;;-2.77;82.32;97117.69;10417784;28;20212;-60
2022/03/06 17:46:53;;;;;;;13.37;8.30;;;;;;;-2.83;80.59;97087.19;10417987;28;20223;-61
2022/03/06 17:51:53;;;;;;;13.33;8.33;;;;;;;-2.83;79.64;97088.03;10399429;28;20683;-59
2022/03/06 17:56:54;;;;;;;14.23;8.00;;;;;;;-2.85;80.01;97081.31;10417602;28;20830;-59
2022/03/06 18:01:55;;;;;;;12.43;7.90;;;;;;;-2.84;80.39;97095.78;10417263;28;20347;-61
2022/03/06 18:06:55;;;;;;;16.87;8.33;;;;;;;-2.99;81.20;97128.84;10436253;28;20197;-61
2022/03/06 18:11:57;;;;;;;15.63;8.60;;;;;;;-2.97;81.16;97121.94;10432418;28;20247;-60
2022/03/06 18:16:57;;;;;;;13.77;9.70;;;;;;;-3.01;82.08;97135.78;10445270;28;20223;-60
2022/03/06 18:21:58;;;;;;;13.33;9.00;;;;;;;-3.00;83.30;97151.97;10457907;28;20296;-59
2022/03/06 18:26:59;;;;;;;15.43;8.00;;;;;;;-3.00;82.62;97134.03;10456283;28;20688;-59
2022/03/06 18:31:59;;;;;;;14.60;8.63;;;;;;;-3.05;83.08;97149.59;10457351;28;20235;-60
2022/03/06 18:37:00;;;;;;;10.63;7.33;;;;;;;-3.03;83.48;97142.69;10457397;28;20230;-59
2022/03/06 18:42:00;;;;;;;17.23;8.40;;;;;;;-3.10;83.45;97143.81;10457082;28;20212;-61
2022/03/06 18:47:01;;;;;;;10.93;7.77;;;;;;;-3.11;83.43;97145.56;10457499;28;20662;-63
2022/03/06 18:52:01;;;;;;;16.50;8.90;;;;;;;-3.11;83.79;97145.56;10456904;28;20694;-59
2022/03/06 18:57:02;;;;;;;15.63;8.40;;;;;;;-3.15;83.73;97156.00;10456477;28;20208;-62
2022/03/06 19:02:02;;;;;;;11.17;7.10;;;;;;;-3.09;83.11;97145.50;10456131;28;20203;-57
2022/03/06 19:07:03;;;;;;;14.40;7.80;;;;;;;-3.09;83.56;97158.31;10456082;28;20976;-59
2022/03/06 19:12:04;;;;;;;11.07;7.27;;;;;;;-3.08;83.57;97155.69;10455027;28;20261;-61
2022/03/06 19:17:04;;;;;;;13.97;8.47;;;;;;;-3.10;83.64;97154.06;10454794;28;20330;-61
2022/03/06 19:22:04;;;;;;;9.50;6.77;;;;;;;-3.12;84.11;97163.56;10454536;28;20239;-61
2022/03/06 19:27:05;;;;;;;17.27;8.80;;;;;;;-3.15;85.18;97168.81;10454847;28;20187;-60
2022/03/06 19:32:06;;;;;;;18.20;9.73;;;;;;;-3.12;84.90;97173.81;10454137;28;20247;-62
2022/03/06 19:37:07;;;;;;;10.80;8.30;;;;;;;-3.11;84.59;97160.94;10453855;28;20684;-59
2022/03/06 19:42:09;;;;;;;14.73;8.37;;;;;;;-3.12;84.76;97151.56;10453965;28;20214;-61
2022/03/06 19:47:09;;;;;;;15.43;9.17;;;;;;;-3.17;84.86;97160.34;10453538;28;20278;-61
2022/03/06 19:52:09;;;;;;;13.97;8.77;;;;;;;-3.22;86.37;97178.44;10453837;28;20212;-61
2022/03/06 19:57:10;;;;;;;13.60;8.03;;;;;;;-3.15;85.61;97169.63;10453167;28;20227;-59
2022/03/06 20:02:10;;;;;;;11.83;8.00;;;;;;;-3.07;85.08;97161.66;10453320;28;20254;-60
2022/03/06 20:07:10;;;;;;;15.00;8.63;;;;;;;-3.17;85.74;97165.47;10452911;28;20218;-61
2022/03/06 20:12:11;;;;;;;15.00;8.67;;;;;;;-3.17;86.31;97181.69;10452372;28;20256;-61
2022/03/06 20:17:11;;;;;;;16.23;9.03;;;;;;;-3.25;87.12;97194.78;10452271;28;20227;-59
2022/03/06 20:22:12;;;;;;;14.83;8.63;;;;;;;-3.24;87.14;97191.31;10452216;28;20243;-61
2022/03/06 20:27:12;;;;;;;11.43;8.23;;;;;;;-3.22;87.14;97186.13;10452513;28;20253;-62
2022/03/06 20:32:14;;;;;;;11.70;7.53;;;;;;;-3.21;87.92;97195.50;10451834;28;20294;-61
2022/03/06 20:37:15;;;;;;;13.83;8.40;;;;;;;-3.20;87.54;97198.88;10451871;28;20227;-61
2022/03/06 20:42:15;;;;;;;13.73;7.57;;;;;;;-3.18;87.55;97203.06;10451783;28;20250;-62
2022/03/06 20:47:15;;;;;;;12.10;6.93;;;;;;;-3.08;86.87;97190.72;10450643;28;20192;-59
2022/03/06 20:52:16;;;;;;;12.50;7.13;;;;;;;-3.20;86.61;97186.94;10451726;28;20630;-61
2022/03/06 20:57:16;;;;;;;10.30;6.73;;;;;;;-3.18;87.72;97202.25;10451170;28;20584;-60
2022/03/06 21:02:17;;;;;;;11.53;7.03;;;;;;;-3.23;86.74;97197.31;10457098;28;20572;-58
2022/03/06 21:07:17;;;;;;;10.67;6.43;;;;;;;-3.16;87.19;97203.00;10455844;28;20192;-61
2022/03/06 21:12:18;;;;;;;8.27;6.10;;;;;;;-3.20;87.26;97201.44;10467888;28;20244;-59
2022/03/06 21:17:19;;;;;;;12.03;6.03;;;;;;;-3.22;87.33;97206.63;10470091;28;20229;-60
2022/03/06 21:22:19;;;;;;;11.10;6.67;;;;;;;-3.28;87.79;97215.41;10469576;28;20688;-61
2022/03/06 21:27:20;;;;;;;10.47;6.30;;;;;;;-3.31;88.61;97218.06;10463711;28;20197;-59
2022/03/06 21:32:21;;;;;;;11.73;6.93;;;;;;;-3.33;88.75;97224.16;10451278;28;20236;-56
2022/03/06 21:37:21;;;;;;;13.90;7.30;;;;;;;-3.39;88.87;97230.34;10451275;28;20696;-61
2022/03/06 21:42:21;;;;;;;11.50;6.63;;;;;;;-3.41;88.55;97216.75;10451322;28;20726;-61
2022/03/06 21:47:22;;;;;;;9.50;6.37;;;;;;;-3.39;89.30;97224.38;10451255;28;20278;-61
2022/03/06 21:52:23;;;;;;;10.17;6.60;;;;;;;-3.38;89.03;97226.91;10451217;28;20277;-59
2022/03/06 21:57:23;;;;;;;10.97;6.70;;;;;;;-3.44;88.89;97225.38;10451564;28;20329;-61
2022/03/06 22:02:24;;;;;;;11.50;6.73;;;;;;;-3.46;89.16;97224.63;10458511;28;20204;-61
2022/03/06 22:07:24;;;;;;;9.70;6.07;;;;;;;-3.50;88.54;97214.53;10458328;28;20651;-61
2022/03/06 22:12:25;;;;;;;9.47;6.73;;;;;;;-3.48;88.80;97220.44;10458033;28;20708;-61
2022/03/06 22:17:26;;;;;;;10.97;7.03;;;;;;;-3.46;87.98;97213.53;10457532;28;20709;-61
2022/03/06 22:22:27;;;;;;;11.13;6.53;;;;;;;-3.51;88.04;97210.31;10457566;28;20234;-59
2022/03/06 22:27:29;;;;;;;11.40;6.80;;;;;;;-3.50;88.63;97217.94;10457674;28;20188;-61
2022/03/06 22:32:29;;;;;;;10.53;6.50;;;;;;;-3.53;88.32;97215.50;10457370;28;20725;-60
2022/03/06 22:37:30;;;;;;;14.33;7.43;;;;;;;-3.52;89.06;97221.44;10457070;28;20228;-61
2022/03/06 22:42:30;;;;;;;11.07;6.43;;;;;;;-3.53;89.20;97224.91;10456953;28;20216;-60
2022/03/06 22:47:30;;;;;;;12.63;6.60;;;;;;;-3.51;89.54;97223.13;10456897;28;20215;-60
2022/03/06 22:52:31;;;;;;;9.90;6.57;;;;;;;-3.55;89.90;97227.53;10456483;28;20764;-61
2022/03/06 22:57:31;;;;;;;9.87;6.83;;;;;;;-3.51;89.50;97223.13;10456478;28;20223;-61
2022/03/06 23:02:31;;;;;;;12.73;6.40;;;;;;;-3.52;90.46;97218.88;10455794;28;20215;-61
2022/03/06 23:07:32;;;;;;;10.77;7.17;;;;;;;-3.51;90.33;97229.06;10455580;28;20199;-61
2022/03/06 23:12:34;;;;;;;10.73;6.13;;;;;;;-3.53;90.07;97222.34;10454564;28;20203;-59